sensor_id;sensor_type;location;lat;lon;timestamp;P1;durP1;ratioP1;P2;durP2;ratioP2
37097;SDS011;63608;49.572;12.348;2023-05-10T00:01:13;5.00;;;4.43;;
37097;SDS011;63608;49.572;12.348;2023-05-10T00:03:16;5.90;;;4.60;;
37097;SDS011;63608;49.572;12.348;2023-05-10T00:05:22;4.90;;;4.50;;
37097;SDS011;63608;49.572;12.348;2023-05-10T00:07:25;5.47;;;4.97;;
37097;SDS011;63608;49.572;12.348;2023-05-10T00:09:29;5.30;;;4.90;;
37097;SDS011;63608;49.572;12.348;2023-05-10T00:11:33;6.63;;;5.30;;
37097;SDS011;63608;49.572;12.348;2023-05-10T00:13:36;5.20;;;4.80;;
37097;SDS011;63608;49.572;12.348;2023-05-10T00:15:41;5.37;;;4.97;;
37097;SDS011;63608;49.572;12.348;2023-05-10T00:17:45;5.37;;;4.87;;
37097;SDS011;63608;49.572;12.348;2023-05-10T00:19:47;5.50;;;5.10;;
37097;SDS011;63608;49.572;12.348;2023-05-10T00:21:55;5.43;;;5.03;;
37097;SDS011;63608;49.572;12.348;2023-05-10T00:23:58;7.00;;;5.00;;
37097;SDS011;63608;49.572;12.348;2023-05-10T00:26:01;5.20;;;4.80;;
37097;SDS011;63608;49.572;12.348;2023-05-10T00:28:04;5.30;;;4.80;;
37097;SDS011;63608;49.572;12.348;2023-05-10T00:30:07;5.23;;;4.73;;
37097;SDS011;63608;49.572;12.348;2023-05-10T00:32:11;9.77;;;4.90;;
37097;SDS011;63608;49.572;12.348;2023-05-10T00:34:14;5.37;;;5.00;;
37097;SDS011;63608;49.572;12.348;2023-05-10T00:36:18;5.17;;;4.73;;
37097;SDS011;63608;49.572;12.348;2023-05-10T00:38:24;5.33;;;4.83;;
37097;SDS011;63608;49.572;12.348;2023-05-10T00:40:27;5.70;;;5.10;;
37097;SDS011;63608;49.572;12.348;2023-05-10T00:42:30;4.77;;;4.37;;
37097;SDS011;63608;49.572;12.348;2023-05-10T00:44:34;5.50;;;4.80;;
37097;SDS011;63608;49.572;12.348;2023-05-10T00:46:36;13.33;;;5.10;;
37097;SDS011;63608;49.572;12.348;2023-05-10T00:48:39;5.50;;;5.10;;
37097;SDS011;63608;49.572;12.348;2023-05-10T00:50:42;6.80;;;5.17;;
37097;SDS011;63608;49.572;12.348;2023-05-10T00:52:46;5.47;;;4.97;;
37097;SDS011;63608;49.572;12.348;2023-05-10T00:54:51;5.77;;;4.93;;
37097;SDS011;63608;49.572;12.348;2023-05-10T00:56:55;5.40;;;4.90;;
37097;SDS011;63608;49.572;12.348;2023-05-10T00:58:59;5.33;;;4.83;;
37097;SDS011;63608;49.572;12.348;2023-05-10T01:01:02;5.17;;;4.67;;
37097;SDS011;63608;49.572;12.348;2023-05-10T01:03:05;5.93;;;5.00;;
37097;SDS011;63608;49.572;12.348;2023-05-10T01:05:08;5.17;;;4.87;;
37097;SDS011;63608;49.572;12.348;2023-05-10T01:07:11;6.00;;;5.07;;
37097;SDS011;63608;49.572;12.348;2023-05-10T01:09:14;5.37;;;4.87;;
37097;SDS011;63608;49.572;12.348;2023-05-10T01:11:19;5.60;;;5.10;;
37097;SDS011;63608;49.572;12.348;2023-05-10T01:13:25;4.90;;;4.60;;
37097;SDS011;63608;49.572;12.348;2023-05-10T01:15:33;5.50;;;5.03;;
37097;SDS011;63608;49.572;12.348;2023-05-10T01:17:37;5.50;;;5.00;;
37097;SDS011;63608;49.572;12.348;2023-05-10T01:19:41;5.77;;;5.17;;
37097;SDS011;63608;49.572;12.348;2023-05-10T01:21:47;5.30;;;4.90;;
37097;SDS011;63608;49.572;12.348;2023-05-10T01:24:01;5.60;;;4.77;;
37097;SDS011;63608;49.572;12.348;2023-05-10T01:26:32;8.10;;;4.43;;
37097;SDS011;63608;49.572;12.348;2023-05-10T01:28:58;5.43;;;5.03;;
37097;SDS011;63608;49.572;12.348;2023-05-10T01:33:41;5.17;;;4.80;;
37097;SDS011;63608;49.572;12.348;2023-05-10T01:35:46;5.13;;;4.73;;
37097;SDS011;63608;49.572;12.348;2023-05-10T01:37:56;5.60;;;5.10;;
37097;SDS011;63608;49.572;12.348;2023-05-10T01:40:08;5.80;;;5.30;;
37097;SDS011;63608;49.572;12.348;2023-05-10T01:42:16;5.43;;;5.00;;
37097;SDS011;63608;49.572;12.348;2023-05-10T01:44:24;8.17;;;4.90;;
37097;SDS011;63608;49.572;12.348;2023-05-10T01:46:35;5.70;;;5.20;;
37097;SDS011;63608;49.572;12.348;2023-05-10T01:48:46;5.40;;;5.00;;
37097;SDS011;63608;49.572;12.348;2023-05-10T01:50:50;5.10;;;4.70;;
37097;SDS011;63608;49.572;12.348;2023-05-10T01:52:54;6.43;;;5.20;;
37097;SDS011;63608;49.572;12.348;2023-05-10T01:54:59;5.27;;;4.93;;
37097;SDS011;63608;49.572;12.348;2023-05-10T01:57:03;6.33;;;5.73;;
37097;SDS011;63608;49.572;12.348;2023-05-10T01:59:11;5.30;;;4.90;;
37097;SDS011;63608;49.572;12.348;2023-05-10T02:01:15;6.00;;;5.50;;
37097;SDS011;63608;49.572;12.348;2023-05-10T02:03:22;5.23;;;4.83;;
37097;SDS011;63608;49.572;12.348;2023-05-10T02:05:28;5.60;;;5.20;;
37097;SDS011;63608;49.572;12.348;2023-05-10T02:07:31;5.50;;;5.10;;
37097;SDS011;63608;49.572;12.348;2023-05-10T02:09:35;5.70;;;5.20;;
37097;SDS011;63608;49.572;12.348;2023-05-10T02:11:39;5.33;;;4.80;;
37097;SDS011;63608;49.572;12.348;2023-05-10T02:13:47;5.80;;;5.40;;
37097;SDS011;63608;49.572;12.348;2023-05-10T02:15:51;5.70;;;5.17;;
37097;SDS011;63608;49.572;12.348;2023-05-10T02:17:55;5.00;;;4.70;;
37097;SDS011;63608;49.572;12.348;2023-05-10T02:20:01;6.17;;;5.67;;
37097;SDS011;63608;49.572;12.348;2023-05-10T02:22:09;5.93;;;5.33;;
37097;SDS011;63608;49.572;12.348;2023-05-10T02:24:15;5.50;;;5.03;;
37097;SDS011;63608;49.572;12.348;2023-05-10T02:26:23;5.73;;;5.10;;
37097;SDS011;63608;49.572;12.348;2023-05-10T02:28:27;6.27;;;5.67;;
37097;SDS011;63608;49.572;12.348;2023-05-10T02:30:31;5.87;;;5.37;;
37097;SDS011;63608;49.572;12.348;2023-05-10T02:32:34;5.80;;;5.30;;
37097;SDS011;63608;49.572;12.348;2023-05-10T02:34:40;6.03;;;5.40;;
37097;SDS011;63608;49.572;12.348;2023-05-10T02:36:46;5.90;;;5.40;;
37097;SDS011;63608;49.572;12.348;2023-05-10T02:38:53;5.63;;;5.23;;
37097;SDS011;63608;49.572;12.348;2023-05-10T02:40:56;5.80;;;5.40;;
37097;SDS011;63608;49.572;12.348;2023-05-10T02:42:59;5.57;;;5.07;;
37097;SDS011;63608;49.572;12.348;2023-05-10T02:45:05;5.67;;;5.27;;
37097;SDS011;63608;49.572;12.348;2023-05-10T02:47:11;5.30;;;4.90;;
37097;SDS011;63608;49.572;12.348;2023-05-10T02:49:13;5.97;;;5.47;;
37097;SDS011;63608;49.572;12.348;2023-05-10T02:51:17;6.00;;;5.50;;
37097;SDS011;63608;49.572;12.348;2023-05-10T02:53:23;6.00;;;5.50;;
37097;SDS011;63608;49.572;12.348;2023-05-10T02:55:37;5.90;;;5.40;;
37097;SDS011;63608;49.572;12.348;2023-05-10T02:57:42;6.20;;;5.60;;
37097;SDS011;63608;49.572;12.348;2023-05-10T02:59:46;6.13;;;5.53;;
37097;SDS011;63608;49.572;12.348;2023-05-10T03:01:50;6.20;;;5.77;;
37097;SDS011;63608;49.572;12.348;2023-05-10T03:03:53;6.80;;;6.20;;
37097;SDS011;63608;49.572;12.348;2023-05-10T03:05:56;5.90;;;5.43;;
37097;SDS011;63608;49.572;12.348;2023-05-10T03:08:00;6.90;;;5.97;;
37097;SDS011;63608;49.572;12.348;2023-05-10T03:10:05;6.33;;;5.70;;
37097;SDS011;63608;49.572;12.348;2023-05-10T03:12:14;7.53;;;5.60;;
37097;SDS011;63608;49.572;12.348;2023-05-10T03:14:26;6.97;;;6.13;;
37097;SDS011;63608;49.572;12.348;2023-05-10T03:16:39;6.43;;;5.80;;
37097;SDS011;63608;49.572;12.348;2023-05-10T03:18:48;6.43;;;5.80;;
37097;SDS011;63608;49.572;12.348;2023-05-10T03:20:57;6.40;;;5.90;;
37097;SDS011;63608;49.572;12.348;2023-05-10T03:23:07;6.60;;;6.03;;
37097;SDS011;63608;49.572;12.348;2023-05-10T03:25:14;6.30;;;5.77;;
37097;SDS011;63608;49.572;12.348;2023-05-10T03:27:20;7.03;;;5.53;;
37097;SDS011;63608;49.572;12.348;2023-05-10T03:29:25;6.20;;;5.70;;
37097;SDS011;63608;49.572;12.348;2023-05-10T03:31:28;6.43;;;5.80;;
37097;SDS011;63608;49.572;12.348;2023-05-10T03:33:35;10.17;;;5.90;;
37097;SDS011;63608;49.572;12.348;2023-05-10T03:35:38;8.53;;;6.17;;
37097;SDS011;63608;49.572;12.348;2023-05-10T03:37:40;6.67;;;6.17;;
37097;SDS011;63608;49.572;12.348;2023-05-10T03:39:43;6.87;;;6.27;;
37097;SDS011;63608;49.572;12.348;2023-05-10T03:41:46;5.70;;;5.20;;
37097;SDS011;63608;49.572;12.348;2023-05-10T03:43:55;6.17;;;5.23;;
37097;SDS011;63608;49.572;12.348;2023-05-10T03:45:58;5.90;;;5.50;;
37097;SDS011;63608;49.572;12.348;2023-05-10T03:48:03;6.43;;;5.83;;
37097;SDS011;63608;49.572;12.348;2023-05-10T03:50:08;8.63;;;5.83;;
37097;SDS011;63608;49.572;12.348;2023-05-10T03:52:11;6.00;;;5.60;;
37097;SDS011;63608;49.572;12.348;2023-05-10T03:54:16;6.30;;;5.80;;
37097;SDS011;63608;49.572;12.348;2023-05-10T03:56:20;6.60;;;6.00;;
37097;SDS011;63608;49.572;12.348;2023-05-10T03:58:23;6.00;;;5.47;;
37097;SDS011;63608;49.572;12.348;2023-05-10T04:00:33;6.60;;;6.10;;
37097;SDS011;63608;49.572;12.348;2023-05-10T04:02:38;7.67;;;6.03;;
37097;SDS011;63608;49.572;12.348;2023-05-10T04:04:45;6.40;;;5.80;;
37097;SDS011;63608;49.572;12.348;2023-05-10T04:06:48;11.53;;;5.70;;
37097;SDS011;63608;49.572;12.348;2023-05-10T04:08:51;7.80;;;6.23;;
37097;SDS011;63608;49.572;12.348;2023-05-10T04:10:53;6.57;;;5.97;;
37097;SDS011;63608;49.572;12.348;2023-05-10T04:13:00;5.90;;;5.40;;
37097;SDS011;63608;49.572;12.348;2023-05-10T04:15:06;7.00;;;6.30;;
37097;SDS011;63608;49.572;12.348;2023-05-10T04:17:12;6.63;;;6.10;;
37097;SDS011;63608;49.572;12.348;2023-05-10T04:19:20;6.23;;;5.63;;
37097;SDS011;63608;49.572;12.348;2023-05-10T04:21:24;6.23;;;5.73;;
37097;SDS011;63608;49.572;12.348;2023-05-10T04:23:29;6.83;;;6.23;;
37097;SDS011;63608;49.572;12.348;2023-05-10T04:25:33;6.90;;;6.40;;
37097;SDS011;63608;49.572;12.348;2023-05-10T04:27:36;6.23;;;5.80;;
37097;SDS011;63608;49.572;12.348;2023-05-10T04:29:40;6.43;;;5.83;;
37097;SDS011;63608;49.572;12.348;2023-05-10T04:31:43;6.70;;;6.10;;
37097;SDS011;63608;49.572;12.348;2023-05-10T04:33:48;7.00;;;6.33;;
37097;SDS011;63608;49.572;12.348;2023-05-10T04:35:54;7.27;;;6.57;;
37097;SDS011;63608;49.572;12.348;2023-05-10T04:37:57;7.33;;;6.30;;
37097;SDS011;63608;49.572;12.348;2023-05-10T04:40:01;7.47;;;6.77;;
37097;SDS011;63608;49.572;12.348;2023-05-10T04:42:05;6.60;;;5.97;;
37097;SDS011;63608;49.572;12.348;2023-05-10T04:44:10;7.13;;;6.53;;
37097;SDS011;63608;49.572;12.348;2023-05-10T04:46:12;6.60;;;6.10;;
37097;SDS011;63608;49.572;12.348;2023-05-10T04:48:15;6.60;;;6.00;;
37097;SDS011;63608;49.572;12.348;2023-05-10T04:50:21;6.17;;;5.67;;
37097;SDS011;63608;49.572;12.348;2023-05-10T04:52:24;6.87;;;6.30;;
37097;SDS011;63608;49.572;12.348;2023-05-10T04:54:28;6.80;;;6.20;;
37097;SDS011;63608;49.572;12.348;2023-05-10T04:56:31;6.53;;;5.93;;
37097;SDS011;63608;49.572;12.348;2023-05-10T04:58:34;7.30;;;6.70;;
37097;SDS011;63608;49.572;12.348;2023-05-10T05:00:39;6.67;;;6.10;;
37097;SDS011;63608;49.572;12.348;2023-05-10T05:02:44;6.73;;;6.23;;
37097;SDS011;63608;49.572;12.348;2023-05-10T05:04:49;6.17;;;5.73;;
37097;SDS011;63608;49.572;12.348;2023-05-10T05:06:56;6.30;;;5.90;;
37097;SDS011;63608;49.572;12.348;2023-05-10T05:09:02;6.77;;;6.17;;
37097;SDS011;63608;49.572;12.348;2023-05-10T05:11:05;7.07;;;6.37;;
37097;SDS011;63608;49.572;12.348;2023-05-10T05:13:08;7.00;;;6.50;;
37097;SDS011;63608;49.572;12.348;2023-05-10T05:15:10;7.03;;;6.43;;
37097;SDS011;63608;49.572;12.348;2023-05-10T05:17:13;6.43;;;5.87;;
37097;SDS011;63608;49.572;12.348;2023-05-10T05:19:18;7.20;;;6.60;;
37097;SDS011;63608;49.572;12.348;2023-05-10T05:21:21;6.63;;;6.13;;
37097;SDS011;63608;49.572;12.348;2023-05-10T05:23:26;24.27;;;6.80;;
37097;SDS011;63608;49.572;12.348;2023-05-10T05:25:30;8.10;;;6.33;;
37097;SDS011;63608;49.572;12.348;2023-05-10T05:27:33;7.13;;;6.53;;
37097;SDS011;63608;49.572;12.348;2023-05-10T05:29:38;7.00;;;6.40;;
37097;SDS011;63608;49.572;12.348;2023-05-10T05:31:42;7.87;;;6.87;;
37097;SDS011;63608;49.572;12.348;2023-05-10T05:33:48;6.90;;;6.40;;
37097;SDS011;63608;49.572;12.348;2023-05-10T05:35:51;7.23;;;6.63;;
37097;SDS011;63608;49.572;12.348;2023-05-10T05:37:55;9.50;;;6.70;;
37097;SDS011;63608;49.572;12.348;2023-05-10T05:40:00;7.03;;;6.43;;
37097;SDS011;63608;49.572;12.348;2023-05-10T05:42:03;8.63;;;7.27;;
37097;SDS011;63608;49.572;12.348;2023-05-10T05:44:06;7.50;;;6.80;;
37097;SDS011;63608;49.572;12.348;2023-05-10T05:46:09;7.00;;;6.40;;
37097;SDS011;63608;49.572;12.348;2023-05-10T05:48:12;7.90;;;7.10;;
37097;SDS011;63608;49.572;12.348;2023-05-10T05:50:15;7.30;;;6.60;;
37097;SDS011;63608;49.572;12.348;2023-05-10T05:52:18;7.40;;;6.80;;
37097;SDS011;63608;49.572;12.348;2023-05-10T05:54:24;8.97;;;7.40;;
37097;SDS011;63608;49.572;12.348;2023-05-10T05:56:28;7.97;;;6.77;;
37097;SDS011;63608;49.572;12.348;2023-05-10T05:58:31;9.40;;;7.20;;
37097;SDS011;63608;49.572;12.348;2023-05-10T06:00:34;8.10;;;7.30;;
37097;SDS011;63608;49.572;12.348;2023-05-10T06:02:38;8.20;;;6.93;;
37097;SDS011;63608;49.572;12.348;2023-05-10T06:04:40;7.80;;;7.07;;
37097;SDS011;63608;49.572;12.348;2023-05-10T06:06:44;8.00;;;7.13;;
37097;SDS011;63608;49.572;12.348;2023-05-10T06:08:47;9.47;;;7.60;;
37097;SDS011;63608;49.572;12.348;2023-05-10T06:10:50;8.63;;;7.80;;
37097;SDS011;63608;49.572;12.348;2023-05-10T06:12:55;8.43;;;7.60;;
37097;SDS011;63608;49.572;12.348;2023-05-10T06:14:58;8.20;;;7.50;;
37097;SDS011;63608;49.572;12.348;2023-05-10T06:17:01;8.60;;;7.77;;
37097;SDS011;63608;49.572;12.348;2023-05-10T06:19:05;8.90;;;7.63;;
37097;SDS011;63608;49.572;12.348;2023-05-10T06:21:09;8.53;;;7.70;;
37097;SDS011;63608;49.572;12.348;2023-05-10T06:23:16;8.07;;;7.37;;
37097;SDS011;63608;49.572;12.348;2023-05-10T06:25:19;8.93;;;8.13;;
37097;SDS011;63608;49.572;12.348;2023-05-10T06:27:23;7.80;;;7.20;;
37097;SDS011;63608;49.572;12.348;2023-05-10T06:29:38;8.87;;;8.00;;
37097;SDS011;63608;49.572;12.348;2023-05-10T06:31:41;8.77;;;7.97;;
37097;SDS011;63608;49.572;12.348;2023-05-10T06:33:44;9.57;;;8.60;;
37097;SDS011;63608;49.572;12.348;2023-05-10T06:35:47;17.47;;;10.00;;
37097;SDS011;63608;49.572;12.348;2023-05-10T06:37:53;9.53;;;8.70;;
37097;SDS011;63608;49.572;12.348;2023-05-10T06:39:56;11.30;;;10.10;;
37097;SDS011;63608;49.572;12.348;2023-05-10T06:41:58;13.20;;;9.90;;
37097;SDS011;63608;49.572;12.348;2023-05-10T06:44:02;8.33;;;7.53;;
37097;SDS011;63608;49.572;12.348;2023-05-10T06:46:07;8.80;;;7.93;;
37097;SDS011;63608;49.572;12.348;2023-05-10T06:48:09;8.80;;;7.90;;
37097;SDS011;63608;49.572;12.348;2023-05-10T06:50:12;11.33;;;8.00;;
37097;SDS011;63608;49.572;12.348;2023-05-10T06:52:16;8.90;;;8.10;;
37097;SDS011;63608;49.572;12.348;2023-05-10T06:54:18;8.70;;;8.00;;
37097;SDS011;63608;49.572;12.348;2023-05-10T06:56:21;10.57;;;8.50;;
37097;SDS011;63608;49.572;12.348;2023-05-10T06:58:24;8.67;;;7.63;;
37097;SDS011;63608;49.572;12.348;2023-05-10T07:00:28;9.53;;;8.63;;
37097;SDS011;63608;49.572;12.348;2023-05-10T07:02:33;8.73;;;8.03;;
37097;SDS011;63608;49.572;12.348;2023-05-10T07:04:35;9.33;;;8.53;;
37097;SDS011;63608;49.572;12.348;2023-05-10T07:06:40;9.87;;;8.97;;
37097;SDS011;63608;49.572;12.348;2023-05-10T07:08:46;10.07;;;8.90;;
37097;SDS011;63608;49.572;12.348;2023-05-10T07:10:51;9.23;;;8.33;;
37097;SDS011;63608;49.572;12.348;2023-05-10T07:12:53;10.70;;;8.90;;
37097;SDS011;63608;49.572;12.348;2023-05-10T07:14:56;10.77;;;9.77;;
37097;SDS011;63608;49.572;12.348;2023-05-10T07:16:59;10.20;;;9.23;;
37097;SDS011;63608;49.572;12.348;2023-05-10T07:19:03;12.00;;;10.40;;
37097;SDS011;63608;49.572;12.348;2023-05-10T07:21:07;10.93;;;9.70;;
37097;SDS011;63608;49.572;12.348;2023-05-10T07:23:10;11.40;;;8.73;;
37097;SDS011;63608;49.572;12.348;2023-05-10T07:25:13;10.00;;;9.10;;
37097;SDS011;63608;49.572;12.348;2023-05-10T07:27:16;9.87;;;8.87;;
37097;SDS011;63608;49.572;12.348;2023-05-10T07:29:19;9.57;;;8.67;;
37097;SDS011;63608;49.572;12.348;2023-05-10T07:31:21;9.07;;;8.27;;
37097;SDS011;63608;49.572;12.348;2023-05-10T07:33:24;9.40;;;8.60;;
37097;SDS011;63608;49.572;12.348;2023-05-10T07:35:35;11.00;;;10.00;;
37097;SDS011;63608;49.572;12.348;2023-05-10T07:37:39;10.67;;;9.63;;
37097;SDS011;63608;49.572;12.348;2023-05-10T07:39:41;10.90;;;9.80;;
37097;SDS011;63608;49.572;12.348;2023-05-10T07:41:45;11.20;;;10.10;;
37097;SDS011;63608;49.572;12.348;2023-05-10T07:43:47;10.10;;;9.17;;
37097;SDS011;63608;49.572;12.348;2023-05-10T07:45:50;10.97;;;9.97;;
37097;SDS011;63608;49.572;12.348;2023-05-10T07:47:54;10.17;;;9.20;;
37097;SDS011;63608;49.572;12.348;2023-05-10T07:50:02;11.43;;;10.33;;
37097;SDS011;63608;49.572;12.348;2023-05-10T07:52:09;12.77;;;11.47;;
37097;SDS011;63608;49.572;12.348;2023-05-10T07:54:14;11.40;;;9.83;;
37097;SDS011;63608;49.572;12.348;2023-05-10T07:56:20;11.07;;;10.07;;
37097;SDS011;63608;49.572;12.348;2023-05-10T07:58:25;9.90;;;9.00;;
37097;SDS011;63608;49.572;12.348;2023-05-10T08:00:35;11.47;;;10.33;;
37097;SDS011;63608;49.572;12.348;2023-05-10T08:02:44;12.30;;;11.10;;
37097;SDS011;63608;49.572;12.348;2023-05-10T08:04:47;12.17;;;10.90;;
37097;SDS011;63608;49.572;12.348;2023-05-10T08:06:50;10.70;;;9.50;;
37097;SDS011;63608;49.572;12.348;2023-05-10T08:08:54;10.83;;;9.73;;
37097;SDS011;63608;49.572;12.348;2023-05-10T08:10:57;10.87;;;9.77;;
37097;SDS011;63608;49.572;12.348;2023-05-10T08:12:59;11.27;;;10.27;;
37097;SDS011;63608;49.572;12.348;2023-05-10T08:15:02;11.23;;;10.13;;
37097;SDS011;63608;49.572;12.348;2023-05-10T08:17:07;13.27;;;10.60;;
37097;SDS011;63608;49.572;12.348;2023-05-10T08:19:10;11.67;;;10.47;;
37097;SDS011;63608;49.572;12.348;2023-05-10T08:21:13;13.70;;;12.17;;
37097;SDS011;63608;49.572;12.348;2023-05-10T08:23:16;12.13;;;10.93;;
37097;SDS011;63608;49.572;12.348;2023-05-10T08:25:21;12.77;;;11.40;;
37097;SDS011;63608;49.572;12.348;2023-05-10T08:27:23;11.97;;;10.73;;
37097;SDS011;63608;49.572;12.348;2023-05-10T08:29:27;11.17;;;10.20;;
37097;SDS011;63608;49.572;12.348;2023-05-10T08:31:30;11.90;;;10.70;;
37097;SDS011;63608;49.572;12.348;2023-05-10T08:33:34;13.53;;;11.27;;
37097;SDS011;63608;49.572;12.348;2023-05-10T08:35:37;13.47;;;12.17;;
37097;SDS011;63608;49.572;12.348;2023-05-10T08:37:40;12.27;;;10.97;;
37097;SDS011;63608;49.572;12.348;2023-05-10T08:39:42;11.67;;;10.47;;
37097;SDS011;63608;49.572;12.348;2023-05-10T08:41:50;12.33;;;11.03;;
37097;SDS011;63608;49.572;12.348;2023-05-10T08:43:54;11.63;;;10.57;;
37097;SDS011;63608;49.572;12.348;2023-05-10T08:45:56;13.10;;;11.80;;
37097;SDS011;63608;49.572;12.348;2023-05-10T08:48:05;12.67;;;11.47;;
37097;SDS011;63608;49.572;12.348;2023-05-10T08:50:08;12.47;;;11.20;;
37097;SDS011;63608;49.572;12.348;2023-05-10T08:52:13;11.63;;;10.53;;
37097;SDS011;63608;49.572;12.348;2023-05-10T08:54:17;11.87;;;10.77;;
37097;SDS011;63608;49.572;12.348;2023-05-10T08:56:23;12.10;;;11.10;;
37097;SDS011;63608;49.572;12.348;2023-05-10T08:58:30;12.07;;;10.97;;
37097;SDS011;63608;49.572;12.348;2023-05-10T09:00:37;12.53;;;11.33;;
37097;SDS011;63608;49.572;12.348;2023-05-10T09:02:39;13.60;;;12.20;;
37097;SDS011;63608;49.572;12.348;2023-05-10T09:04:42;13.10;;;11.80;;
37097;SDS011;63608;49.572;12.348;2023-05-10T09:06:49;13.93;;;12.53;;
37097;SDS011;63608;49.572;12.348;2023-05-10T09:08:52;12.73;;;11.40;;
37097;SDS011;63608;49.572;12.348;2023-05-10T09:10:56;16.20;;;12.30;;
37097;SDS011;63608;49.572;12.348;2023-05-10T09:12:59;13.20;;;11.90;;
37097;SDS011;63608;49.572;12.348;2023-05-10T09:15:03;13.63;;;12.17;;
37097;SDS011;63608;49.572;12.348;2023-05-10T09:17:07;13.70;;;12.30;;
37097;SDS011;63608;49.572;12.348;2023-05-10T09:19:10;13.10;;;11.90;;
37097;SDS011;63608;49.572;12.348;2023-05-10T09:21:13;13.33;;;11.93;;
37097;SDS011;63608;49.572;12.348;2023-05-10T09:23:18;12.50;;;11.20;;
37097;SDS011;63608;49.572;12.348;2023-05-10T09:25:31;12.87;;;11.67;;
37097;SDS011;63608;49.572;12.348;2023-05-10T09:27:35;13.03;;;11.83;;
37097;SDS011;63608;49.572;12.348;2023-05-10T09:29:41;11.73;;;10.73;;
37097;SDS011;63608;49.572;12.348;2023-05-10T09:31:48;13.03;;;11.70;;
37097;SDS011;63608;49.572;12.348;2023-05-10T09:34:04;12.77;;;11.57;;
37097;SDS011;63608;49.572;12.348;2023-05-10T09:36:07;12.20;;;11.10;;
37097;SDS011;63608;49.572;12.348;2023-05-10T09:38:10;11.33;;;10.33;;
37097;SDS011;63608;49.572;12.348;2023-05-10T09:40:13;12.33;;;11.20;;
37097;SDS011;63608;49.572;12.348;2023-05-10T09:42:19;12.70;;;10.43;;
37097;SDS011;63608;49.572;12.348;2023-05-10T09:44:23;11.43;;;10.30;;
37097;SDS011;63608;49.572;12.348;2023-05-10T09:46:27;12.40;;;10.33;;
37097;SDS011;63608;49.572;12.348;2023-05-10T09:48:32;11.63;;;10.60;;
37097;SDS011;63608;49.572;12.348;2023-05-10T09:50:36;12.10;;;11.00;;
37097;SDS011;63608;49.572;12.348;2023-05-10T09:52:50;12.07;;;10.97;;
37097;SDS011;63608;49.572;12.348;2023-05-10T09:54:54;13.20;;;11.90;;
37097;SDS011;63608;49.572;12.348;2023-05-10T09:56:57;11.30;;;10.30;;
37097;SDS011;63608;49.572;12.348;2023-05-10T09:59:04;12.23;;;10.97;;
37097;SDS011;63608;49.572;12.348;2023-05-10T10:01:11;12.50;;;11.40;;
37097;SDS011;63608;49.572;12.348;2023-05-10T10:03:15;13.00;;;11.70;;
37097;SDS011;63608;49.572;12.348;2023-05-10T10:05:20;12.10;;;11.00;;
37097;SDS011;63608;49.572;12.348;2023-05-10T10:07:25;13.43;;;12.13;;
37097;SDS011;63608;49.572;12.348;2023-05-10T10:09:33;12.50;;;11.30;;
37097;SDS011;63608;49.572;12.348;2023-05-10T10:11:37;11.87;;;10.77;;
37097;SDS011;63608;49.572;12.348;2023-05-10T10:13:41;11.73;;;10.63;;
37097;SDS011;63608;49.572;12.348;2023-05-10T10:15:47;12.33;;;11.20;;
37097;SDS011;63608;49.572;12.348;2023-05-10T10:17:53;13.10;;;10.97;;
37097;SDS011;63608;49.572;12.348;2023-05-10T10:19:56;12.03;;;10.97;;
37097;SDS011;63608;49.572;12.348;2023-05-10T10:22:01;12.60;;;11.40;;
37097;SDS011;63608;49.572;12.348;2023-05-10T10:24:06;12.30;;;11.20;;
37097;SDS011;63608;49.572;12.348;2023-05-10T10:26:08;10.73;;;9.83;;
37097;SDS011;63608;49.572;12.348;2023-05-10T10:28:21;10.33;;;9.43;;
37097;SDS011;63608;49.572;12.348;2023-05-10T10:30:52;10.50;;;9.50;;
37097;SDS011;63608;49.572;12.348;2023-05-10T10:33:06;10.00;;;9.10;;
37097;SDS011;63608;49.572;12.348;2023-05-10T10:35:19;11.20;;;10.10;;
37097;SDS011;63608;49.572;12.348;2023-05-10T10:37:25;10.93;;;9.93;;
37097;SDS011;63608;49.572;12.348;2023-05-10T10:39:44;12.80;;;10.07;;
37097;SDS011;63608;49.572;12.348;2023-05-10T10:41:50;9.30;;;8.60;;
37097;SDS011;63608;49.572;12.348;2023-05-10T10:44:22;9.10;;;8.30;;
37097;SDS011;63608;49.572;12.348;2023-05-10T10:46:26;8.33;;;7.67;;
37097;SDS011;63608;49.572;12.348;2023-05-10T10:48:32;7.73;;;7.13;;
37097;SDS011;63608;49.572;12.348;2023-05-10T10:50:43;8.93;;;8.20;;
37097;SDS011;63608;49.572;12.348;2023-05-10T10:52:49;8.40;;;7.80;;
37097;SDS011;63608;49.572;12.348;2023-05-10T10:55:01;8.03;;;7.43;;
37097;SDS011;63608;49.572;12.348;2023-05-10T10:57:11;8.53;;;7.80;;
37097;SDS011;63608;49.572;12.348;2023-05-10T10:59:23;8.17;;;7.47;;
37097;SDS011;63608;49.572;12.348;2023-05-10T11:01:32;9.03;;;8.23;;
37097;SDS011;63608;49.572;12.348;2023-05-10T11:03:36;8.43;;;7.73;;
37097;SDS011;63608;49.572;12.348;2023-05-10T11:05:39;8.50;;;7.80;;
37097;SDS011;63608;49.572;12.348;2023-05-10T11:07:53;8.67;;;7.97;;
37097;SDS011;63608;49.572;12.348;2023-05-10T11:09:56;8.63;;;8.00;;
37097;SDS011;63608;49.572;12.348;2023-05-10T11:12:08;8.30;;;7.70;;
37097;SDS011;63608;49.572;12.348;2023-05-10T11:14:11;8.20;;;7.60;;
37097;SDS011;63608;49.572;12.348;2023-05-10T11:16:17;8.33;;;7.73;;
37097;SDS011;63608;49.572;12.348;2023-05-10T11:18:23;8.37;;;7.67;;
37097;SDS011;63608;49.572;12.348;2023-05-10T11:20:33;9.00;;;8.23;;
37097;SDS011;63608;49.572;12.348;2023-05-10T11:22:52;7.87;;;7.37;;
37097;SDS011;63608;49.572;12.348;2023-05-10T11:24:56;8.80;;;8.10;;
37097;SDS011;63608;49.572;12.348;2023-05-10T11:26:59;6.70;;;6.30;;
37097;SDS011;63608;49.572;12.348;2023-05-10T11:29:02;6.53;;;6.13;;
37097;SDS011;63608;49.572;12.348;2023-05-10T11:31:06;8.97;;;8.27;;
37097;SDS011;63608;49.572;12.348;2023-05-10T11:33:11;8.00;;;7.30;;
37097;SDS011;63608;49.572;12.348;2023-05-10T11:35:17;8.20;;;7.57;;
37097;SDS011;63608;49.572;12.348;2023-05-10T11:37:20;8.20;;;7.60;;
37097;SDS011;63608;49.572;12.348;2023-05-10T11:39:27;8.30;;;7.70;;
37097;SDS011;63608;49.572;12.348;2023-05-10T11:41:31;7.93;;;7.33;;
37097;SDS011;63608;49.572;12.348;2023-05-10T11:43:37;8.80;;;8.00;;
37097;SDS011;63608;49.572;12.348;2023-05-10T11:45:40;7.20;;;6.60;;
37097;SDS011;63608;49.572;12.348;2023-05-10T11:47:44;7.40;;;6.90;;
37097;SDS011;63608;49.572;12.348;2023-05-10T11:49:51;8.63;;;7.93;;
37097;SDS011;63608;49.572;12.348;2023-05-10T11:51:55;7.97;;;7.37;;
37097;SDS011;63608;49.572;12.348;2023-05-10T11:54:07;8.57;;;7.97;;
37097;SDS011;63608;49.572;12.348;2023-05-10T11:56:14;9.37;;;8.60;;
37097;SDS011;63608;49.572;12.348;2023-05-10T11:58:27;8.60;;;7.90;;
37097;SDS011;63608;49.572;12.348;2023-05-10T12:00:29;9.50;;;8.70;;
37097;SDS011;63608;49.572;12.348;2023-05-10T12:02:35;8.30;;;7.60;;
37097;SDS011;63608;49.572;12.348;2023-05-10T12:04:39;7.97;;;7.37;;
37097;SDS011;63608;49.572;12.348;2023-05-10T12:06:42;8.17;;;7.57;;
37097;SDS011;63608;49.572;12.348;2023-05-10T12:08:47;7.10;;;6.60;;
37097;SDS011;63608;49.572;12.348;2023-05-10T12:10:53;8.00;;;7.40;;
37097;SDS011;63608;49.572;12.348;2023-05-10T12:13:12;7.47;;;6.97;;
37097;SDS011;63608;49.572;12.348;2023-05-10T12:17:50;7.67;;;7.17;;
37097;SDS011;63608;49.572;12.348;2023-05-10T12:19:58;7.90;;;7.30;;
37097;SDS011;63608;49.572;12.348;2023-05-10T12:22:04;7.10;;;6.60;;
37097;SDS011;63608;49.572;12.348;2023-05-10T12:24:06;7.90;;;7.30;;